createdAt,value
2018-11-28T00:00:21.077Z,82.00
2018-11-28T00:02:50.098Z,82.40
2018-11-28T00:05:18.742Z,82.70
2018-11-28T00:07:47.495Z,82.70
2018-11-28T00:10:16.000Z,82.60
2018-11-28T00:12:44.405Z,82.30
2018-11-28T00:15:13.895Z,82.20
2018-11-28T00:17:42.332Z,82.10
2018-11-28T00:20:17.089Z,82.30
2018-11-28T00:22:45.900Z,82.40
2018-11-28T00:25:15.148Z,82.50
2018-11-28T00:27:43.738Z,82.50
2018-11-28T00:30:21.773Z,82.30
2018-11-28T00:32:50.253Z,82.20
2018-11-28T00:35:19.619Z,82.10
2018-11-28T00:37:48.117Z,82.10
2018-11-28T00:40:18.099Z,82.10
2018-11-28T00:42:46.577Z,82.30
2018-11-28T00:45:16.233Z,83.30
2018-11-28T00:47:44.712Z,82.40
2018-11-28T00:50:14.435Z,82.30
2018-11-28T00:52:42.861Z,81.80
2018-11-28T00:55:12.403Z,81.50
2018-11-28T00:57:41.130Z,81.30
2018-11-28T01:00:12.179Z,81.10
2018-11-28T01:02:40.719Z,80.90
2018-11-28T01:05:10.451Z,80.70
2018-11-28T01:07:38.952Z,80.30
2018-11-28T01:10:11.619Z,80.00
2018-11-28T01:12:39.235Z,79.80
2018-11-28T01:15:07.636Z,79.80
2018-11-28T01:17:36.018Z,79.80
2018-11-28T01:20:05.833Z,79.90
2018-11-28T01:22:34.295Z,80.40
2018-11-28T01:25:02.707Z,80.80
2018-11-28T01:27:31.194Z,81.10
2018-11-28T01:29:59.567Z,81.40
2018-11-28T01:32:27.975Z,81.30
2018-11-28T01:34:56.349Z,81.40
2018-11-28T01:37:24.788Z,81.20
2018-11-28T01:39:53.172Z,81.20
2018-11-28T01:42:21.566Z,81.60
2018-11-28T01:44:50.366Z,81.80
2018-11-28T01:47:18.903Z,81.70
2018-11-28T01:49:47.878Z,82.00
2018-11-28T01:52:16.324Z,82.00
2018-11-28T01:54:44.800Z,82.00
2018-11-28T01:57:13.205Z,82.00
2018-11-28T01:59:41.650Z,82.00
2018-11-28T02:02:10.875Z,82.20
2018-11-28T02:04:39.521Z,82.10
2018-11-28T02:07:08.475Z,82.10
2018-11-28T02:09:37.015Z,82.20
2018-11-28T02:12:05.707Z,82.10
2018-11-28T02:14:34.168Z,82.20
2018-11-28T02:17:02.604Z,82.20
2018-11-28T02:19:30.984Z,82.30
2018-11-28T02:21:59.372Z,82.20
2018-11-28T02:24:28.122Z,82.10
2018-11-28T02:27:03.604Z,82.90
2018-11-28T02:29:32.101Z,82.20
2018-11-28T02:32:00.603Z,82.40
2018-11-28T02:34:29.276Z,82.30
2018-11-28T02:36:58.056Z,81.70
2018-11-28T02:39:26.649Z,81.80
2018-11-28T02:41:55.006Z,81.70
2018-11-28T02:44:23.704Z,82.00
2018-11-28T02:46:58.724Z,82.10
2018-11-28T02:49:27.488Z,82.20
2018-11-28T02:51:56.425Z,82.20
2018-11-28T02:54:25.100Z,82.40
2018-11-28T02:56:53.585Z,82.30
2018-11-28T02:59:22.062Z,82.20
2018-11-28T03:01:50.578Z,82.20
2018-11-28T03:04:19.416Z,82.50
2018-11-28T03:06:47.803Z,82.70
2018-11-28T03:09:16.378Z,82.80
2018-11-28T03:11:44.821Z,83.00
2018-11-28T03:14:13.760Z,83.20
2018-11-28T03:16:42.270Z,83.30
2018-11-28T03:19:10.752Z,83.40
2018-11-28T03:21:39.184Z,83.60
2018-11-28T03:24:07.719Z,83.50
2018-11-28T03:26:36.269Z,82.80
2018-11-28T03:29:04.855Z,83.30
2018-11-28T03:31:33.562Z,83.40
2018-11-28T03:34:02.027Z,83.50
2018-11-28T03:36:30.676Z,83.70
2018-11-28T03:38:59.453Z,83.80
2018-11-28T03:41:28.038Z,83.90
2018-11-28T03:43:56.465Z,83.90
2018-11-28T03:46:25.072Z,83.60
2018-11-28T03:48:53.621Z,83.70
2018-11-28T03:51:22.295Z,83.60
2018-11-28T03:53:50.692Z,83.40
2018-11-28T03:56:19.078Z,83.40
2018-11-28T03:58:47.468Z,83.20
2018-11-28T04:01:16.048Z,83.20
2018-11-28T04:03:44.535Z,83.40
2018-11-28T04:06:12.904Z,83.50
2018-11-28T04:08:41.653Z,83.40
2018-11-28T04:11:10.253Z,83.60
2018-11-28T04:13:38.906Z,83.50
2018-11-28T04:16:07.389Z,83.30
2018-11-28T04:18:36.238Z,83.30
2018-11-28T04:21:05.237Z,84.00
2018-11-28T04:23:34.031Z,83.20
2018-11-28T04:26:02.479Z,83.60
2018-11-28T04:28:31.254Z,83.80
2018-11-28T04:30:59.740Z,83.20
2018-11-28T04:33:28.231Z,82.50
2018-11-28T04:35:56.844Z,82.50
2018-11-28T04:38:25.486Z,83.10
2018-11-28T04:40:54.157Z,83.50
2018-11-28T04:43:23.041Z,83.40
2018-11-28T04:45:51.445Z,83.20
2018-11-28T04:48:19.816Z,83.00
2018-11-28T04:50:48.272Z,82.60
2018-11-28T04:53:17.009Z,82.40
2018-11-28T04:55:45.897Z,82.20
2018-11-28T04:58:14.321Z,81.80
2018-11-28T05:00:42.961Z,82.20
2018-11-28T05:03:11.536Z,82.60
2018-11-28T05:05:40.243Z,82.90
2018-11-28T05:08:08.624Z,83.10
2018-11-28T05:10:37.228Z,83.30
2018-11-28T05:13:05.664Z,83.00
2018-11-28T05:15:34.336Z,82.70
2018-11-28T05:18:03.177Z,82.80
2018-11-28T05:20:33.787Z,82.30
2018-11-28T05:23:02.916Z,82.30
2018-11-28T05:25:32.152Z,82.90
2018-11-28T05:28:00.798Z,82.50
2018-11-28T05:30:30.408Z,82.40
2018-11-28T05:32:58.935Z,82.30
2018-11-28T05:35:32.034Z,82.10
2018-11-28T05:38:01.018Z,82.40
2018-11-28T05:40:29.492Z,82.50
2018-11-28T05:42:57.921Z,82.30
2018-11-28T05:45:26.312Z,82.60
2018-11-28T05:47:54.779Z,82.90
2018-11-28T05:50:23.281Z,83.20
2018-11-28T05:52:51.922Z,83.40
2018-11-28T05:55:22.463Z,83.50
2018-11-28T05:57:50.896Z,83.50
2018-11-28T06:00:25.712Z,83.10
2018-11-28T06:02:54.189Z,82.40
2018-11-28T06:05:22.597Z,82.60
2018-11-28T06:07:51.005Z,82.50
2018-11-28T06:10:19.375Z,82.40
2018-11-28T06:12:47.809Z,82.80
2018-11-28T06:15:16.264Z,82.30
2018-11-28T06:17:44.635Z,82.50
2018-11-28T06:20:14.882Z,82.70
2018-11-28T06:22:43.348Z,82.60
2018-11-28T06:25:16.093Z,83.40
2018-11-28T06:27:41.186Z,83.70
2018-11-28T06:30:11.169Z,83.70
2018-11-28T06:32:39.684Z,83.40
2018-11-28T06:35:09.244Z,83.20
2018-11-28T06:37:37.692Z,82.90
2018-11-28T06:40:10.616Z,82.70
2018-11-28T06:42:39.337Z,82.70
2018-11-28T06:45:09.473Z,82.60
2018-11-28T06:47:37.848Z,82.40
2018-11-28T06:50:15.924Z,82.30
2018-11-28T06:52:45.516Z,82.40
2018-11-28T06:55:15.326Z,82.60
2018-11-28T06:57:43.746Z,82.70
2018-11-28T07:00:15.290Z,82.80
2018-11-28T07:02:43.747Z,82.90
2018-11-28T07:05:12.835Z,82.60
2018-11-28T07:07:41.300Z,82.40
2018-11-28T07:10:14.870Z,82.00
2018-11-28T07:12:43.339Z,81.70
2018-11-28T07:15:14.917Z,81.60
2018-11-28T07:17:43.944Z,81.20
2018-11-28T07:20:16.293Z,80.50
2018-11-28T07:22:44.743Z,80.00
2018-11-28T07:25:17.385Z,79.80
2018-11-28T07:27:46.844Z,79.60
2018-11-28T07:30:20.277Z,79.50
2018-11-28T07:32:49.713Z,79.70
2018-11-28T07:35:18.144Z,79.90
2018-11-28T07:37:46.642Z,80.00
2018-11-28T07:40:17.255Z,79.90
2018-11-28T07:42:48.615Z,79.80
2018-11-28T07:45:17.016Z,79.60
2018-11-28T07:47:45.450Z,79.30
2018-11-28T07:50:13.952Z,79.00
2018-11-28T07:52:42.483Z,78.70
2018-11-28T07:55:11.634Z,78.60
2018-11-28T07:57:40.396Z,78.60
2018-11-28T08:00:11.820Z,78.70
2018-11-28T08:02:40.504Z,78.90
2018-11-28T08:05:10.059Z,79.30
2018-11-28T08:07:38.493Z,79.10
2018-11-28T08:10:09.229Z,79.00
2018-11-28T08:12:37.591Z,79.10
2018-11-28T08:15:07.484Z,79.00
2018-11-28T08:17:36.396Z,78.90
2018-11-28T08:20:04.755Z,78.50
2018-11-28T08:22:33.228Z,78.40
2018-11-28T08:25:01.637Z,79.30
2018-11-28T08:27:30.058Z,79.00
2018-11-28T08:29:58.592Z,79.00
2018-11-28T08:32:27.019Z,79.00
2018-11-28T08:34:55.520Z,78.50
2018-11-28T08:37:23.908Z,78.00
2018-11-28T08:39:52.417Z,78.00
2018-11-28T08:42:20.805Z,77.80
2018-11-28T08:44:49.225Z,77.80
2018-11-28T08:47:17.629Z,77.80
2018-11-28T08:49:46.048Z,77.80
2018-11-28T08:52:14.443Z,77.30
2018-11-28T08:54:42.909Z,77.50
2018-11-28T08:57:11.452Z,77.30
2018-11-28T08:59:40.018Z,76.80
2018-11-28T09:02:08.638Z,76.90
2018-11-28T09:04:37.048Z,76.80
2018-11-28T09:07:05.751Z,76.70
2018-11-28T09:09:34.227Z,77.00
2018-11-28T09:12:02.808Z,76.90
2018-11-28T09:14:31.244Z,77.10
2018-11-28T09:16:59.712Z,76.80
2018-11-28T09:19:28.253Z,76.60
2018-11-28T09:21:56.737Z,76.40
2018-11-28T09:24:25.137Z,76.60
2018-11-28T09:26:53.700Z,76.70
2018-11-28T09:29:22.132Z,76.50
2018-11-28T09:31:50.540Z,75.90
2018-11-28T09:34:18.941Z,76.10
2018-11-28T09:36:47.368Z,76.30
2018-11-28T09:39:15.897Z,75.80
2018-11-28T09:41:44.329Z,75.60
2018-11-28T09:44:12.712Z,76.30
2018-11-28T09:46:41.142Z,75.40
2018-11-28T09:49:09.586Z,75.80
2018-11-28T09:51:38.039Z,75.40
2018-11-28T09:54:06.900Z,75.50
2018-11-28T09:56:35.365Z,75.50
2018-11-28T09:59:03.752Z,75.50
2018-11-28T10:01:32.288Z,75.30
2018-11-28T10:04:00.807Z,74.70
2018-11-28T10:06:29.242Z,74.70
2018-11-28T10:08:57.650Z,74.80
2018-11-28T10:11:26.094Z,74.90
2018-11-28T10:13:54.453Z,75.10
2018-11-28T10:16:22.881Z,74.60
2018-11-28T10:18:51.456Z,74.30
2018-11-28T10:21:19.267Z,74.00
2018-11-28T10:23:47.700Z,73.60
2018-11-28T10:26:16.146Z,73.20
2018-11-28T10:28:44.571Z,73.90
2018-11-28T10:31:12.968Z,73.70
2018-11-28T10:33:41.376Z,73.80
2018-11-28T10:36:09.772Z,73.90
2018-11-28T10:38:38.221Z,74.30
2018-11-28T10:41:07.814Z,74.40
2018-11-28T10:43:35.396Z,74.10
2018-11-28T10:46:03.904Z,74.40
2018-11-28T10:48:32.356Z,74.50
2018-11-28T10:51:00.773Z,73.90
2018-11-28T10:53:29.317Z,73.50
2018-11-28T10:55:57.767Z,73.50
2018-11-28T10:58:27.222Z,73.70
2018-11-28T11:01:00.188Z,73.70
2018-11-28T11:03:33.912Z,73.60
2018-11-28T11:06:04.720Z,73.30
2018-11-28T11:08:38.442Z,73.60
2018-11-28T11:11:12.297Z,73.60
2018-11-28T11:13:42.556Z,73.50
2018-11-28T11:16:10.993Z,73.50
2018-11-28T11:18:39.425Z,73.70
2018-11-28T11:21:08.889Z,73.70
2018-11-28T11:23:37.304Z,73.60
2018-11-28T11:26:05.733Z,73.50
2018-11-28T11:28:34.155Z,73.60
2018-11-28T11:31:02.655Z,73.30
2018-11-28T11:33:31.276Z,73.40
2018-11-28T11:35:59.697Z,73.50
2018-11-28T11:38:28.092Z,73.10
2018-11-28T11:40:56.484Z,72.70
2018-11-28T11:43:24.923Z,72.70
2018-11-28T11:45:53.441Z,72.90
2018-11-28T11:48:21.844Z,72.70
2018-11-28T11:50:50.298Z,72.20
2018-11-28T11:53:18.794Z,72.10
2018-11-28T11:55:47.219Z,71.80
2018-11-28T11:58:15.634Z,71.60
2018-11-28T12:00:45.676Z,70.80
2018-11-28T12:03:14.752Z,70.40
2018-11-28T12:05:59.933Z,70.30
2018-11-28T12:08:29.330Z,69.90
2018-11-28T12:10:57.733Z,69.60
2018-11-28T12:13:26.534Z,69.30
2018-11-28T12:15:54.997Z,68.90
2018-11-28T12:18:23.444Z,69.00
2018-11-28T12:20:57.909Z,68.70
2018-11-28T12:23:26.511Z,68.10
2018-11-28T12:25:54.994Z,68.10
2018-11-28T12:28:23.453Z,67.80
2018-11-28T12:30:52.012Z,67.80
2018-11-28T12:33:20.531Z,67.50
2018-11-28T12:35:49.025Z,67.20
2018-11-28T12:38:17.460Z,66.20
2018-11-28T12:40:45.867Z,65.30
2018-11-28T12:43:14.560Z,65.00
2018-11-28T12:45:44.538Z,64.30
2018-11-28T12:48:13.484Z,63.10
2018-11-28T12:50:42.061Z,63.10
2018-11-28T12:53:11.781Z,63.60
2018-11-28T12:55:41.096Z,63.60
2018-11-28T12:58:24.310Z,63.20
2018-11-28T13:00:52.748Z,62.90
2018-11-28T13:03:21.212Z,63.00
2018-11-28T13:05:50.750Z,63.10
2018-11-28T13:08:19.281Z,62.70
2018-11-28T13:10:47.761Z,63.10
2018-11-28T13:13:16.177Z,63.40
2018-11-28T13:15:44.882Z,63.60
2018-11-28T13:18:13.314Z,63.50
2018-11-28T13:20:42.671Z,63.70
2018-11-28T13:23:13.710Z,63.30
2018-11-28T13:25:42.844Z,63.50
2018-11-28T13:28:11.261Z,63.60
2018-11-28T13:30:40.131Z,63.40
2018-11-28T13:33:08.906Z,63.80
2018-11-28T13:35:37.371Z,64.30
2018-11-28T13:38:10.971Z,64.20
2018-11-28T13:40:39.685Z,64.30
2018-11-28T13:43:08.076Z,64.10
2018-11-28T13:45:38.422Z,63.90
2018-11-28T13:48:06.837Z,64.10
2018-11-28T13:50:35.486Z,64.10
2018-11-28T13:53:06.433Z,64.30
2018-11-28T13:55:38.853Z,65.50
2018-11-28T13:58:06.117Z,64.40
2018-11-28T14:00:34.669Z,64.30
2018-11-28T14:03:03.083Z,64.60
2018-11-28T14:05:31.592Z,64.60
2018-11-28T14:08:00.049Z,64.60
2018-11-28T14:10:28.531Z,64.70
2018-11-28T14:12:56.986Z,64.50
2018-11-28T14:15:24.597Z,64.60
2018-11-28T14:17:54.020Z,64.40
2018-11-28T14:20:21.734Z,64.30
2018-11-28T14:22:49.423Z,64.20
2018-11-28T14:25:17.072Z,64.40
2018-11-28T14:27:44.753Z,64.30
2018-11-28T14:30:14.036Z,64.50
2018-11-28T14:32:41.841Z,64.70
2018-11-28T14:35:10.013Z,64.90
2018-11-28T14:37:37.710Z,64.90
2018-11-28T14:40:14.269Z,64.90
2018-11-28T14:42:43.086Z,65.60
2018-11-28T14:45:13.693Z,65.10
2018-11-28T14:47:42.861Z,64.70
2018-11-28T14:50:15.491Z,64.00
2018-11-28T14:52:44.164Z,63.00
2018-11-28T14:55:14.840Z,62.50
2018-11-28T14:57:43.397Z,63.40
2018-11-28T15:00:18.525Z,62.30
2018-11-28T15:02:48.443Z,61.50
2018-11-28T15:05:19.913Z,61.70
2018-11-28T15:07:49.405Z,61.70
2018-11-28T15:10:18.269Z,61.70
2018-11-28T15:12:46.702Z,61.30
2018-11-28T15:15:15.278Z,61.10
2018-11-28T15:17:43.802Z,60.60
2018-11-28T15:20:12.330Z,61.30
2018-11-28T15:22:40.756Z,61.20
2018-11-28T15:25:10.065Z,61.40
2018-11-28T15:27:39.298Z,62.00
2018-11-28T15:30:09.020Z,61.00
2018-11-28T15:32:37.524Z,61.20
2018-11-28T15:35:06.156Z,61.20
2018-11-28T15:37:34.692Z,61.50
2018-11-28T15:40:03.256Z,61.50
2018-11-28T15:42:31.672Z,61.70
2018-11-28T15:45:00.114Z,62.20
2018-11-28T15:47:29.156Z,62.20
2018-11-28T15:49:57.800Z,62.50
2018-11-28T15:52:26.455Z,62.30
2018-11-28T15:54:54.887Z,62.30
2018-11-28T15:57:23.441Z,62.10
2018-11-28T15:59:51.868Z,62.00
2018-11-28T16:02:20.302Z,62.20
2018-11-28T16:04:48.869Z,62.50
2018-11-28T16:07:17.457Z,62.50
2018-11-28T16:09:51.168Z,62.50
2018-11-28T16:12:19.667Z,62.70
2018-11-28T16:14:48.098Z,62.80
2018-11-28T16:17:16.614Z,63.10
2018-11-28T16:19:45.058Z,63.40
2018-11-28T16:22:13.539Z,63.40
2018-11-28T16:24:42.017Z,63.60
2018-11-28T16:27:10.520Z,63.70
2018-11-28T16:29:39.660Z,63.90
2018-11-28T16:32:08.108Z,64.30
2018-11-28T16:34:36.594Z,64.20
2018-11-28T16:37:05.149Z,64.20
2018-11-28T16:39:33.733Z,64.10
2018-11-28T16:42:02.284Z,64.10
2018-11-28T16:44:30.779Z,64.20
2018-11-28T16:46:59.257Z,64.60
2018-11-28T16:49:27.789Z,64.70
2018-11-28T16:51:56.245Z,65.50
2018-11-28T16:54:24.777Z,64.70
2018-11-28T16:56:53.234Z,65.00
2018-11-28T16:59:21.968Z,64.90
2018-11-28T17:01:50.369Z,65.00
2018-11-28T17:04:18.929Z,65.10
2018-11-28T17:06:47.460Z,65.00
2018-11-28T17:09:16.022Z,65.20
2018-11-28T17:11:44.599Z,65.40
2018-11-28T17:14:13.078Z,65.50
2018-11-28T17:16:41.622Z,65.50
2018-11-28T17:19:10.175Z,65.40
2018-11-28T17:21:38.599Z,66.00
2018-11-28T17:24:07.052Z,66.40
2018-11-28T17:26:35.570Z,66.50
2018-11-28T17:29:04.246Z,66.60
2018-11-28T17:31:32.036Z,66.30
2018-11-28T17:33:59.803Z,66.80
2018-11-28T17:36:27.496Z,68.20
2018-11-28T17:38:55.183Z,67.90
2018-11-28T17:41:23.761Z,68.20
2018-11-28T17:43:51.553Z,68.80
2018-11-28T17:46:19.205Z,69.00
2018-11-28T17:48:46.843Z,69.20
2018-11-28T17:51:14.568Z,69.30
2018-11-28T17:53:42.247Z,70.60
2018-11-28T17:56:10.044Z,69.90
2018-11-28T17:58:37.734Z,69.80
2018-11-28T18:01:05.770Z,70.00
2018-11-28T18:03:33.466Z,70.20
2018-11-28T18:06:01.292Z,69.50
2018-11-28T18:08:28.988Z,69.90
2018-11-28T18:11:01.309Z,70.30
2018-11-28T18:13:29.005Z,70.40
2018-11-28T18:15:56.720Z,70.30
2018-11-28T18:18:26.277Z,69.80
2018-11-28T18:20:54.729Z,69.80
2018-11-28T18:23:23.180Z,69.50
2018-11-28T18:25:51.685Z,70.00
2018-11-28T18:28:20.207Z,69.80
2018-11-28T18:30:48.639Z,70.10
2018-11-28T18:33:17.096Z,70.30
2018-11-28T18:35:45.605Z,70.50
2018-11-28T18:38:14.418Z,70.50
2018-11-28T18:40:43.322Z,71.00
2018-11-28T18:43:12.451Z,71.20
2018-11-28T18:45:45.364Z,71.20
2018-11-28T18:48:14.349Z,71.40
2018-11-28T18:50:42.910Z,70.60
2018-11-28T18:53:11.553Z,70.30
2018-11-28T18:55:40.362Z,70.10
2018-11-28T18:58:10.256Z,70.00
2018-11-28T19:00:39.056Z,69.80
2018-11-28T19:03:08.181Z,69.80
2018-11-28T19:05:36.918Z,69.60
2018-11-28T19:08:06.100Z,69.50
2018-11-28T19:10:34.917Z,70.00
2018-11-28T19:13:03.639Z,70.30
2018-11-28T19:15:33.149Z,70.40
2018-11-28T19:18:02.406Z,70.60
2018-11-28T19:20:31.436Z,70.80
2018-11-28T19:23:00.408Z,70.80
2018-11-28T19:25:29.824Z,70.90
2018-11-28T19:27:58.653Z,70.80
2018-11-28T19:30:34.722Z,71.10
2018-11-28T19:33:03.887Z,71.50
2018-11-28T19:35:33.005Z,71.50
2018-11-28T19:38:02.205Z,71.80
2018-11-28T19:40:38.062Z,72.00
2018-11-28T19:43:07.205Z,71.80
2018-11-28T19:45:36.085Z,72.20
2018-11-28T19:48:04.872Z,71.90
2018-11-28T19:50:34.550Z,71.70
2018-11-28T19:53:02.988Z,71.80
2018-11-28T19:55:31.541Z,71.80
2018-11-28T19:58:00.150Z,72.10
2018-11-28T20:00:28.715Z,72.00
2018-11-28T20:02:57.561Z,72.00
2018-11-28T20:05:26.170Z,72.00
2018-11-28T20:07:55.097Z,72.00
2018-11-28T20:10:23.963Z,71.80
2018-11-28T20:12:53.053Z,71.60
2018-11-28T20:15:36.691Z,71.50
2018-11-28T20:18:05.642Z,71.60
2018-11-28T20:20:34.598Z,71.40
2018-11-28T20:23:03.148Z,71.40
2018-11-28T20:25:31.792Z,71.50
2018-11-28T20:28:00.762Z,71.50
2018-11-28T20:30:33.591Z,71.50
2018-11-28T20:33:02.190Z,70.60
2018-11-28T20:35:30.653Z,71.50
2018-11-28T20:37:59.217Z,71.30
2018-11-28T20:40:27.687Z,71.20
2018-11-28T20:42:56.700Z,71.50
2018-11-28T20:45:25.384Z,71.70
2018-11-28T20:47:53.926Z,71.90
2018-11-28T20:50:27.411Z,71.40
2018-11-28T20:53:00.751Z,71.20
2018-11-28T20:55:29.240Z,71.10
2018-11-28T20:57:57.763Z,71.40
2018-11-28T21:00:26.476Z,71.80
2018-11-28T21:02:54.975Z,71.70
2018-11-28T21:05:23.632Z,72.10
2018-11-28T21:07:52.268Z,72.40
2018-11-28T21:10:26.383Z,71.90
2018-11-28T21:12:54.935Z,71.60
2018-11-28T21:15:23.820Z,71.30
2018-11-28T21:17:52.337Z,71.50
2018-11-28T21:20:22.276Z,72.30
2018-11-28T21:22:52.151Z,72.80
2018-11-28T21:25:21.202Z,73.10
2018-11-28T21:27:49.855Z,72.90
2018-11-28T21:30:19.604Z,72.40
2018-11-28T21:32:48.999Z,72.30
2018-11-28T21:35:23.784Z,72.40
2018-11-28T21:37:52.370Z,72.40
2018-11-28T21:40:21.030Z,73.00
2018-11-28T21:42:50.042Z,73.20
2018-11-28T21:45:20.723Z,73.40
2018-11-28T21:47:50.074Z,73.30
2018-11-28T21:50:19.713Z,74.30
2018-11-28T21:52:48.497Z,73.20
2018-11-28T21:55:20.090Z,73.10
2018-11-28T21:57:48.719Z,73.00
2018-11-28T22:00:19.182Z,73.30
2018-11-28T22:02:47.756Z,73.10
2018-11-28T22:05:16.831Z,73.50
2018-11-28T22:07:45.512Z,72.50
2018-11-28T22:10:13.834Z,72.40
2018-11-28T22:12:41.618Z,72.40
2018-11-28T22:15:10.097Z,72.40
2018-11-28T22:17:38.268Z,72.50
2018-11-28T22:20:07.243Z,72.70
2018-11-28T22:22:35.117Z,72.60
2018-11-28T22:25:02.872Z,72.50
2018-11-28T22:27:31.461Z,72.90
2018-11-28T22:30:00.125Z,73.50
2018-11-28T22:32:28.700Z,73.60
2018-11-28T22:34:57.423Z,73.60
2018-11-28T22:37:25.899Z,73.20
2018-11-28T22:39:54.436Z,72.90
2018-11-28T22:42:23.412Z,72.50
2018-11-28T22:44:51.824Z,72.20
2018-11-28T22:47:20.356Z,72.10
2018-11-28T22:49:48.848Z,71.90
2018-11-28T22:52:17.263Z,71.90
2018-11-28T22:54:45.724Z,71.90
2018-11-28T22:57:14.127Z,72.60
2018-11-28T22:59:42.633Z,72.40
2018-11-28T23:02:51.900Z,72.40
2018-11-28T23:05:22.036Z,72.50
2018-11-28T23:07:51.175Z,72.70
2018-11-28T23:10:20.140Z,72.70
2018-11-28T23:12:49.130Z,72.70
2018-11-28T23:15:18.272Z,73.20
2018-11-28T23:17:47.308Z,73.00
2018-11-28T23:20:15.771Z,73.10
2018-11-28T23:22:44.457Z,73.20
2018-11-28T23:25:13.591Z,73.20
2018-11-28T23:27:42.464Z,73.30
2018-11-28T23:30:18.330Z,73.40
2018-11-28T23:32:48.150Z,73.40
2018-11-28T23:35:17.650Z,73.50
2018-11-28T23:37:47.551Z,73.70
2018-11-28T23:40:16.974Z,74.00
2018-11-28T23:42:46.229Z,73.60
2018-11-28T23:45:15.882Z,73.50
2018-11-28T23:47:44.568Z,73.70
2018-11-28T23:50:20.041Z,73.90
2018-11-28T23:52:49.507Z,74.40
2018-11-28T23:55:22.004Z,74.20
2018-11-28T23:57:50.993Z,74.30
